createdAt,value
2019-02-05T05:01:01.260Z,-3.80
2019-02-05T05:03:47.988Z,-3.80
2019-02-05T05:06:40.288Z,-3.80
2019-02-05T05:09:15.582Z,-3.80
2019-02-05T05:11:44.173Z,-3.80
2019-02-05T05:14:12.779Z,-3.80
2019-02-05T05:16:41.411Z,-3.90
2019-02-05T05:19:10.238Z,-4.00
2019-02-05T05:21:39.243Z,-4.00
2019-02-05T05:24:08.388Z,-4.00
2019-02-05T05:26:37.347Z,-4.00
2019-02-05T05:29:06.408Z,-4.00
2019-02-05T05:31:35.121Z,-4.00
2019-02-05T05:34:04.118Z,-4.00
2019-02-05T05:36:32.657Z,-4.00
2019-02-05T05:39:01.457Z,-4.10
2019-02-05T05:41:30.029Z,-4.20
2019-02-05T05:43:58.614Z,-4.20
2019-02-05T05:46:27.243Z,-4.30
2019-02-05T05:48:55.788Z,-4.30
2019-02-05T05:51:24.336Z,-4.20
2019-02-05T05:53:52.916Z,-4.20
2019-02-05T05:56:21.557Z,-4.20
2019-02-05T05:58:50.223Z,-4.20
2019-02-05T06:01:19.657Z,-4.20
2019-02-05T06:03:48.234Z,-4.20
2019-02-05T06:06:16.810Z,-4.20
2019-02-05T06:08:45.421Z,-4.20
2019-02-05T06:11:14.161Z,-4.20
2019-02-05T06:13:42.891Z,-4.20
2019-02-05T06:16:11.558Z,-4.10
2019-02-05T06:18:40.196Z,-4.10
2019-02-05T06:21:08.742Z,-4.10
2019-02-05T06:23:37.349Z,-4.10
2019-02-05T06:26:05.972Z,-4.10
2019-02-05T06:28:35.006Z,-4.10
2019-02-05T06:31:03.639Z,-4.10
2019-02-05T06:33:32.267Z,-4.10
2019-02-05T06:36:00.816Z,-4.10
2019-02-05T06:38:29.477Z,-4.10
2019-02-05T06:40:58.171Z,-4.00
2019-02-05T06:43:26.747Z,-4.10
2019-02-05T06:45:55.479Z,-4.10
2019-02-05T06:48:24.157Z,-4.00
2019-02-05T06:50:52.699Z,-4.10
2019-02-05T06:53:21.695Z,-4.00
2019-02-05T06:55:50.295Z,-4.00
2019-02-05T06:58:18.843Z,-4.00
2019-02-05T07:00:47.419Z,-4.00
2019-02-05T07:03:16.350Z,-4.00
2019-02-05T07:05:45.006Z,-3.90
2019-02-05T07:08:13.556Z,-4.00
2019-02-05T07:10:42.126Z,-4.00
2019-02-05T07:13:10.769Z,-3.90
2019-02-05T07:15:39.483Z,-3.90
2019-02-05T07:18:08.131Z,-3.80
2019-02-05T07:20:37.092Z,-3.80
2019-02-05T07:23:05.805Z,-3.80
2019-02-05T07:25:34.417Z,-3.80
2019-02-05T07:28:03.026Z,-3.80
2019-02-05T07:30:31.701Z,-3.80
2019-02-05T07:33:00.321Z,-3.80
2019-02-05T07:35:28.904Z,-3.80
2019-02-05T07:37:57.796Z,-3.80
2019-02-05T07:40:26.510Z,-3.70
2019-02-05T07:42:55.140Z,-3.70
2019-02-05T07:45:24.443Z,-3.70
2019-02-05T07:47:53.055Z,-3.70
2019-02-05T07:50:24.034Z,-3.60
2019-02-05T07:52:52.754Z,-3.60
2019-02-05T07:55:21.399Z,-3.60
2019-02-05T07:57:49.989Z,-3.50
2019-02-05T08:00:21.448Z,-3.50
2019-02-05T08:02:50.186Z,-3.50
2019-02-05T08:05:21.359Z,-3.40
2019-02-05T08:07:50.461Z,-3.40
2019-02-05T08:10:21.083Z,-3.40
2019-02-05T08:12:50.212Z,-3.30
2019-02-05T08:15:21.862Z,-3.30
2019-02-05T08:17:50.425Z,-3.30
2019-02-05T08:20:18.995Z,-3.30
2019-02-05T08:22:47.659Z,-3.30
2019-02-05T08:25:16.275Z,-3.30
2019-02-05T08:27:44.814Z,-3.30
2019-02-05T08:30:22.210Z,-3.30
2019-02-05T08:32:50.753Z,-3.30
2019-02-05T08:35:19.580Z,-3.20
2019-02-05T08:37:48.142Z,-3.20
2019-02-05T08:40:18.802Z,-3.20
2019-02-05T08:42:47.605Z,-3.20
2019-02-05T08:45:21.922Z,-3.20
2019-02-05T08:47:50.569Z,-3.20
2019-02-05T08:50:21.808Z,-3.10
2019-02-05T08:52:50.532Z,-3.00
2019-02-05T08:55:20.620Z,-3.00
2019-02-05T08:57:50.969Z,-3.00
2019-02-05T09:00:28.101Z,-3.00
2019-02-05T09:02:56.699Z,-3.10
2019-02-05T09:05:25.383Z,-3.20
2019-02-05T09:07:54.008Z,-3.10
2019-02-05T09:10:30.889Z,-3.00
2019-02-05T09:12:59.559Z,-3.00
2019-02-05T09:15:29.791Z,-2.90
2019-02-05T09:17:58.673Z,-2.90
2019-02-05T09:20:27.296Z,-2.90
2019-02-05T09:22:56.007Z,-2.80
2019-02-05T09:25:24.714Z,-2.80
2019-02-05T09:27:53.395Z,-2.60
2019-02-05T09:30:30.050Z,-2.50
2019-02-05T09:33:01.084Z,-2.40
2019-02-05T09:35:30.271Z,-2.30
2019-02-05T09:37:58.980Z,-2.30
2019-02-05T09:40:31.947Z,-2.20
2019-02-05T09:43:00.758Z,-2.20
2019-02-05T09:45:31.024Z,-2.10
2019-02-05T09:48:00.722Z,-2.10
2019-02-05T09:50:30.941Z,-2.30
2019-02-05T09:53:00.021Z,-2.30
2019-02-05T09:55:28.761Z,-2.20
2019-02-05T09:57:57.438Z,-2.20
2019-02-05T10:00:31.139Z,-2.20
2019-02-05T10:03:00.187Z,-2.10
2019-02-05T10:05:33.629Z,-2.10
2019-02-05T10:08:02.244Z,-2.00
2019-02-05T10:10:30.898Z,-1.90
2019-02-05T10:12:59.612Z,-1.90
2019-02-05T10:15:30.677Z,-1.70
2019-02-05T10:17:59.657Z,-1.50
2019-02-05T10:20:28.339Z,-1.20
2019-02-05T10:22:58.967Z,-0.90
2019-02-05T10:25:27.591Z,-0.50
2019-02-05T10:27:56.248Z,0.10
2019-02-05T10:30:42.107Z,0.80
2019-02-05T10:33:10.898Z,1.50
2019-02-05T10:35:39.825Z,2.10
2019-02-05T10:38:08.522Z,2.50
2019-02-05T10:40:37.231Z,3.10
2019-02-05T10:43:06.270Z,3.40
2019-02-05T10:45:35.687Z,3.70
2019-02-05T10:48:05.566Z,4.20
2019-02-05T10:50:34.279Z,4.60
2019-02-05T10:53:02.900Z,5.00
2019-02-05T10:55:31.460Z,5.30
2019-02-05T10:58:00.210Z,5.20
2019-02-05T11:00:30.675Z,5.20
2019-02-05T11:03:04.716Z,5.20
2019-02-05T11:05:33.397Z,5.20
2019-02-05T11:08:02.063Z,5.50
2019-02-05T11:10:30.629Z,5.70
2019-02-05T11:12:59.312Z,6.00
2019-02-05T11:15:29.944Z,6.20
2019-02-05T11:17:58.927Z,6.40
2019-02-05T11:20:28.627Z,6.50
2019-02-05T11:22:57.333Z,6.20
2019-02-05T11:25:26.160Z,6.20
2019-02-05T11:27:54.862Z,6.60
2019-02-05T11:30:34.703Z,6.90
2019-02-05T11:33:03.302Z,7.20
2019-02-05T11:35:32.201Z,7.40
2019-02-05T11:38:01.213Z,7.30
2019-02-05T11:40:34.338Z,7.30
2019-02-05T11:43:03.062Z,7.50
2019-02-05T11:45:31.940Z,7.90
2019-02-05T11:48:03.124Z,8.10
2019-02-05T11:50:32.053Z,8.40
2019-02-05T11:53:00.604Z,8.30
2019-02-05T11:55:33.385Z,8.60
2019-02-05T11:58:02.066Z,8.60
2019-02-05T12:00:34.945Z,8.60
2019-02-05T12:03:04.217Z,8.30
2019-02-05T12:05:32.906Z,7.30
2019-02-05T12:08:01.629Z,6.90
2019-02-05T12:10:30.169Z,6.70
2019-02-05T12:12:58.730Z,6.80
2019-02-05T12:15:27.449Z,7.20
2019-02-05T12:17:55.991Z,7.40
2019-02-05T12:20:24.649Z,7.80
2019-02-05T12:22:53.515Z,8.20
2019-02-05T12:25:23.656Z,8.40
2019-02-05T12:27:52.273Z,8.50
2019-02-05T12:30:26.549Z,8.50
2019-02-05T12:32:55.261Z,8.30
2019-02-05T12:35:23.890Z,8.20
2019-02-05T12:37:52.525Z,8.20
2019-02-05T12:40:21.522Z,8.20
2019-02-05T12:42:50.416Z,8.10
2019-02-05T12:45:24.610Z,8.20
2019-02-05T12:47:53.222Z,8.30
2019-02-05T12:50:26.866Z,8.30
2019-02-05T12:52:55.878Z,8.30
2019-02-05T12:55:24.792Z,8.20
2019-02-05T12:57:53.452Z,8.00
2019-02-05T13:00:33.725Z,7.90
2019-02-05T13:03:02.465Z,7.90
2019-02-05T13:05:31.251Z,7.90
2019-02-05T13:08:00.170Z,7.80
2019-02-05T13:10:37.510Z,7.70
2019-02-05T13:13:07.072Z,7.50
2019-02-05T13:15:35.755Z,7.40
2019-02-05T13:18:04.964Z,7.20
2019-02-05T13:20:33.604Z,7.10
2019-02-05T13:23:03.483Z,6.90
2019-02-05T13:25:33.210Z,6.80
2019-02-05T13:28:01.833Z,6.70
2019-02-05T13:30:32.608Z,6.60
2019-02-05T13:33:01.295Z,6.60
2019-02-05T13:35:30.529Z,6.50
2019-02-05T13:37:59.136Z,6.30
2019-02-05T13:40:28.731Z,6.10
2019-02-05T13:42:57.860Z,5.80
2019-02-05T13:45:32.036Z,5.60
2019-02-05T13:48:01.283Z,5.20
2019-02-05T13:50:33.485Z,4.90
2019-02-05T13:53:02.254Z,4.50
2019-02-05T13:55:33.563Z,4.30
2019-02-05T13:58:02.341Z,4.00
2019-02-05T14:00:39.306Z,3.80
2019-02-05T14:03:09.312Z,3.60
2019-02-05T14:05:38.225Z,3.40
2019-02-05T14:08:07.053Z,3.20
2019-02-05T14:10:38.115Z,3.10
2019-02-05T14:13:06.831Z,2.90
2019-02-05T14:15:37.507Z,2.80
2019-02-05T14:18:06.825Z,2.70
2019-02-05T14:20:35.379Z,2.60
2019-02-05T14:23:04.307Z,2.60
2019-02-05T14:25:32.909Z,2.60
2019-02-05T14:28:01.428Z,2.50
2019-02-05T14:30:34.931Z,2.50
2019-02-05T14:33:04.142Z,2.40
2019-02-05T14:35:32.724Z,2.40
2019-02-05T14:38:01.329Z,2.30
2019-02-05T14:40:29.954Z,2.30
2019-02-05T14:42:58.692Z,3.10
2019-02-05T14:45:27.278Z,3.10
2019-02-05T14:47:55.964Z,3.00
2019-02-05T14:50:39.128Z,3.00
2019-02-05T14:53:08.578Z,2.80
2019-02-05T14:55:37.452Z,2.70
2019-02-05T14:58:08.480Z,2.60
2019-02-05T15:00:38.060Z,2.50
2019-02-05T15:03:11.262Z,2.40
2019-02-05T15:05:40.265Z,2.30
2019-02-05T15:08:09.498Z,2.20
2019-02-05T15:10:38.311Z,2.20
2019-02-05T15:13:06.997Z,2.20
2019-02-05T15:15:35.818Z,2.20
2019-02-05T15:18:05.641Z,2.10
2019-02-05T15:20:39.337Z,2.10
2019-02-05T15:23:08.325Z,2.10
2019-02-05T15:25:37.100Z,1.90
2019-02-05T15:28:06.109Z,1.90
2019-02-05T15:30:36.607Z,1.70
2019-02-05T15:33:14.801Z,1.70
2019-02-05T15:35:50.703Z,1.60
2019-02-05T15:38:19.390Z,1.50
2019-02-05T15:40:48.415Z,1.50
2019-02-05T15:43:17.036Z,1.50
2019-02-05T15:45:45.603Z,1.40
2019-02-05T15:48:14.178Z,1.30
2019-02-05T15:50:42.763Z,1.20
2019-02-05T15:53:11.381Z,1.10
2019-02-05T15:55:40.599Z,1.10
2019-02-05T15:58:09.219Z,1.10
2019-02-05T16:00:37.764Z,1.00
2019-02-05T16:03:07.597Z,0.90
2019-02-05T16:05:36.417Z,0.70
2019-02-05T16:08:05.381Z,0.60
2019-02-05T16:10:34.041Z,0.40
2019-02-05T16:13:03.192Z,0.40
2019-02-05T16:15:32.063Z,0.30
2019-02-05T16:18:00.683Z,0.30
2019-02-05T16:20:29.270Z,0.20
2019-02-05T16:22:57.911Z,0.20
2019-02-05T16:25:26.483Z,0.20
2019-02-05T16:27:55.511Z,0.10
2019-02-05T16:30:33.414Z,0.10
2019-02-05T16:33:02.009Z,0.00
2019-02-05T16:35:30.597Z,-0.10
2019-02-05T16:37:59.342Z,-0.10
2019-02-05T16:40:38.718Z,-0.20
2019-02-05T16:43:07.646Z,-0.30
2019-02-05T16:45:36.324Z,-0.40
2019-02-05T16:48:05.483Z,-0.50
2019-02-05T16:50:42.860Z,-0.60
2019-02-05T16:53:12.242Z,-0.60
2019-02-05T16:55:40.850Z,-0.60
2019-02-05T16:58:09.534Z,-0.70
2019-02-05T17:00:39.154Z,-0.70
2019-02-05T17:03:07.898Z,-0.80
2019-02-05T17:05:41.746Z,-0.90
2019-02-05T17:08:10.497Z,-0.90
2019-02-05T17:10:39.076Z,-0.90
2019-02-05T17:13:07.852Z,-1.00
2019-02-05T17:15:36.451Z,-1.00
2019-02-05T17:18:06.297Z,-1.10
2019-02-05T17:20:35.169Z,-1.20
2019-02-05T17:23:04.620Z,-1.20
2019-02-05T17:25:35.875Z,-1.30
2019-02-05T17:28:05.774Z,-1.30
2019-02-05T17:30:37.078Z,-1.30
2019-02-05T17:33:06.652Z,-1.30
2019-02-05T17:35:35.641Z,-1.40
2019-02-05T17:38:06.827Z,-1.40
2019-02-05T17:40:35.586Z,-1.30
2019-02-05T17:43:04.896Z,-1.30
2019-02-05T17:45:35.685Z,-1.30
2019-02-05T17:48:07.839Z,-1.30
2019-02-05T17:50:36.470Z,-1.30
2019-02-05T17:53:05.297Z,-1.30
2019-02-05T17:55:33.903Z,-1.30
2019-02-05T17:58:02.609Z,-1.40
2019-02-05T18:00:36.933Z,-1.40
2019-02-05T18:03:06.095Z,-1.40
2019-02-05T18:05:35.045Z,-1.40
2019-02-05T18:08:04.416Z,-1.40
2019-02-05T18:10:32.986Z,-1.50
2019-02-05T18:13:01.569Z,-1.50
2019-02-05T18:15:35.748Z,-1.50
2019-02-05T18:18:05.369Z,-1.40
2019-02-05T18:20:34.542Z,-1.50
2019-02-05T18:23:03.982Z,-1.40
2019-02-05T18:25:32.572Z,-1.40
2019-02-05T18:28:01.175Z,-1.50
2019-02-05T18:30:35.727Z,-1.50
2019-02-05T18:33:05.796Z,-1.50
2019-02-05T18:35:34.560Z,-1.50
2019-02-05T18:38:05.453Z,-1.50
2019-02-05T18:40:34.140Z,-1.50
2019-02-05T18:43:02.745Z,-1.50
2019-02-05T18:45:31.304Z,-1.50
2019-02-05T18:47:59.814Z,-1.50
2019-02-05T18:50:30.100Z,-1.50
2019-02-05T18:52:59.145Z,-1.50
2019-02-05T18:55:33.713Z,-1.50
2019-02-05T18:58:09.527Z,-1.50
2019-02-05T19:00:41.855Z,-1.50
2019-02-05T19:03:15.479Z,-1.50
2019-02-05T19:05:40.970Z,-1.50
2019-02-05T19:08:10.106Z,-1.60
2019-02-05T19:10:38.757Z,-1.60
2019-02-05T19:13:07.812Z,-1.60
2019-02-05T19:15:40.751Z,-1.60
2019-02-05T19:18:10.839Z,-1.70
2019-02-05T19:20:39.603Z,-1.70
2019-02-05T19:23:09.721Z,-1.70
2019-02-05T19:25:43.137Z,-1.70
2019-02-05T19:28:13.522Z,-1.70
2019-02-05T19:30:46.739Z,-1.70
2019-02-05T19:33:26.453Z,-1.70
2019-02-05T19:35:45.616Z,-1.70
2019-02-05T19:38:14.256Z,-1.70
2019-02-05T19:40:42.839Z,-1.70
2019-02-05T19:43:11.446Z,-1.70
2019-02-05T19:45:53.816Z,-1.80
2019-02-05T19:48:30.171Z,-1.80
2019-02-05T19:50:59.164Z,-1.80
2019-02-05T19:53:27.707Z,-1.80
2019-02-05T19:55:56.847Z,-1.80
2019-02-05T19:58:25.415Z,-1.90
2019-02-05T20:00:54.338Z,-1.90
2019-02-05T20:03:23.014Z,-1.90
2019-02-05T20:05:51.799Z,-1.90
2019-02-05T20:08:20.374Z,-2.00
2019-02-05T20:10:49.016Z,-2.10
2019-02-05T20:13:17.575Z,-2.20
2019-02-05T20:15:46.194Z,-2.20
2019-02-05T20:18:15.056Z,-2.30
2019-02-05T20:20:43.610Z,-2.30
2019-02-05T20:23:12.190Z,-2.40
2019-02-05T20:25:40.749Z,-2.40
2019-02-05T20:28:09.435Z,-2.50
2019-02-05T20:30:38.005Z,-2.50
2019-02-05T20:33:06.568Z,-2.50
2019-02-05T20:35:35.302Z,-2.60
2019-02-05T20:38:04.033Z,-2.70
2019-02-05T20:40:33.482Z,-2.70
2019-02-05T20:43:02.079Z,-2.70
2019-02-05T20:45:30.627Z,-2.80
2019-02-05T20:47:59.265Z,-2.80
2019-02-05T20:50:27.967Z,-2.90
2019-02-05T20:52:56.866Z,-2.90
2019-02-05T20:55:26.097Z,-2.80
2019-02-05T20:57:54.743Z,-2.90
2019-02-05T21:00:28.783Z,-2.90
2019-02-05T21:02:57.923Z,-2.80
2019-02-05T21:05:26.560Z,-2.80
2019-02-05T21:07:55.232Z,-2.80
2019-02-05T21:10:25.366Z,-2.80
2019-02-05T21:12:54.028Z,-2.80
2019-02-05T21:15:23.219Z,-2.90
2019-02-05T21:17:52.209Z,-2.90
2019-02-05T21:20:29.366Z,-2.90
2019-02-05T21:22:57.181Z,-3.00
2019-02-05T21:25:26.440Z,-3.10
2019-02-05T21:27:58.181Z,-3.10
2019-02-05T21:30:27.036Z,-3.20
2019-02-05T21:32:55.670Z,-3.20
2019-02-05T21:35:24.392Z,-3.20
2019-02-05T21:37:53.031Z,-3.20
2019-02-05T21:40:23.714Z,-3.20
2019-02-05T21:42:52.366Z,-3.20
2019-02-05T21:45:25.890Z,-3.30
2019-02-05T21:47:54.457Z,-3.30
2019-02-05T21:50:23.730Z,-3.30
2019-02-05T21:52:52.553Z,-3.30
2019-02-05T21:55:22.778Z,-3.40
2019-02-05T21:57:51.428Z,-3.40
2019-02-05T22:00:30.803Z,-3.40
2019-02-05T22:02:59.655Z,-3.40
2019-02-05T22:05:29.994Z,-3.50
2019-02-05T22:07:58.667Z,-3.50
2019-02-05T22:10:27.289Z,-3.50
2019-02-05T22:12:55.939Z,-3.50
2019-02-05T22:15:24.825Z,-3.50
2019-02-05T22:17:53.364Z,-3.50
2019-02-05T22:20:29.017Z,-3.50
2019-02-05T22:22:57.728Z,-3.50
2019-02-05T22:25:28.502Z,-3.50
2019-02-05T22:27:57.266Z,-3.60
2019-02-05T22:30:28.273Z,-3.60
2019-02-05T22:32:57.308Z,-3.70
2019-02-05T22:35:26.040Z,-3.70
2019-02-05T22:37:54.961Z,-3.80
2019-02-05T22:40:25.413Z,-3.80
2019-02-05T22:42:54.351Z,-3.80
2019-02-05T22:45:25.442Z,-3.90
2019-02-05T22:47:54.168Z,-3.90
2019-02-05T22:50:30.894Z,-3.90
2019-02-05T22:52:59.889Z,-3.90
2019-02-05T22:55:28.539Z,-3.90
2019-02-05T22:57:57.154Z,-4.00
2019-02-05T23:00:54.207Z,-4.00
2019-02-05T23:03:25.773Z,-4.00
2019-02-05T23:06:03.471Z,-3.90
2019-02-05T23:08:32.129Z,-3.90
2019-02-05T23:11:12.377Z,-3.90
2019-02-05T23:13:40.957Z,-3.90
2019-02-05T23:16:09.593Z,-3.80
2019-02-05T23:18:38.160Z,-3.80
2019-02-05T23:21:06.892Z,-3.80
2019-02-05T23:23:35.422Z,-3.80
2019-02-05T23:26:04.457Z,-3.80
2019-02-05T23:28:33.410Z,-3.90
2019-02-05T23:31:02.002Z,-3.90
2019-02-05T23:33:30.686Z,-3.90
2019-02-05T23:35:59.233Z,-3.80
2019-02-05T23:38:29.710Z,-3.90
2019-02-05T23:40:58.078Z,-3.80
2019-02-05T23:43:26.881Z,-3.90
2019-02-05T23:46:01.480Z,-3.90
2019-02-05T23:48:25.748Z,-3.90
2019-02-05T23:50:54.334Z,-3.80
2019-02-05T23:53:22.928Z,-3.90
2019-02-05T23:55:52.127Z,-3.90
2019-02-05T23:58:20.689Z,-3.90
